Time;durP1;ratioP1;P1;durP2;ratioP2;P2;SDS_P1;SDS_P2;PMS_P1;PMS_P2;Temp;Humidity;BMP_temperature;BMP_pressure;BME280_temperature;BME280_humidity;BME280_pressure;Samples;Min_cycle;Max_cycle;Signal;HPM_P1;HPM_P2
2022/02/05 00:01:23;;;;;;;1.75;1.60;;;6.90;99.90;;;;;;5052085;28;20290;-66
2022/02/05 00:03:57;;;;;;;2.97;1.80;;;6.80;99.90;;;;;;5052048;28;20242;-66
2022/02/05 00:06:29;;;;;;;3.08;1.60;;;6.70;99.90;;;;;;5052250;28;20289;-68
2022/02/05 00:09:06;;;;;;;1.83;1.67;;;6.70;99.90;;;;;;5052088;28;20760;-68
2022/02/05 00:14:39;;;;;;;1.20;1.10;;;6.60;99.90;;;;;;5042803;28;20254;-69
2022/02/05 00:20:29;;;;;;;1.50;1.40;;;6.60;99.90;;;;;;5051635;28;20202;-69
2022/02/05 00:39:53;;;;;;;2.35;1.80;;;6.30;99.90;;;;;;5051609;28;20214;-68
2022/02/05 00:42:37;;;;;;;2.33;2.13;;;6.30;99.90;;;;;;5051669;28;20302;-68
2022/02/05 00:45:07;;;;;;;2.58;1.60;;;6.00;99.90;;;;;;5051834;28;20223;-68
2022/02/05 00:47:38;;;;;;;1.88;1.77;;;6.00;99.90;;;;;;5051564;28;20215;-68
2022/02/05 00:50:11;;;;;;;1.60;1.50;;;6.00;99.90;;;;;;5051540;28;20231;-68
2022/02/05 00:52:38;;;;;;;2.08;1.48;;;6.00;99.90;;;;;;5054863;28;20203;-67
2022/02/05 00:55:12;;;;;;;1.67;1.58;;;6.00;99.90;;;;;;5055287;28;20662;-68
2022/02/05 00:57:45;;;;;;;2.20;1.92;;;6.00;99.90;;;;;;5055410;28;20294;-68
2022/02/05 01:00:18;;;;;;;1.52;1.42;;;6.00;99.90;;;;;;5055048;28;20203;-69
2022/02/05 01:02:47;;;;;;;1.90;1.63;;;5.80;99.90;;;;;;5055706;28;20573;-67
2022/02/05 01:05:17;;;;;;;2.25;1.48;;;5.70;99.90;;;;;;5055468;28;20215;-67
2022/02/05 01:07:47;;;;;;;2.33;1.23;;;5.60;99.90;;;;;;5055609;28;20237;-67
2022/02/05 01:10:15;;;;;;;2.17;1.40;;;5.50;99.90;;;;;;5055168;28;20217;-67
2022/02/05 01:12:47;;;;;;;1.52;1.42;;;5.50;99.90;;;;;;5055410;28;20199;-67
2022/02/05 01:15:17;;;;;;;1.90;1.60;;;5.40;99.90;;;;;;5055270;28;20747;-67
2022/02/05 01:17:52;;;;;;;1.35;1.30;;;5.40;99.90;;;;;;5055303;28;20208;-67
2022/02/05 01:21:00;;;;;;;1.45;1.35;;;5.40;99.90;;;;;;5055318;28;20297;-68
2022/02/05 01:23:34;;;;;;;2.10;1.70;;;5.50;99.90;;;;;;5055083;28;20203;-67
2022/02/05 01:26:11;;;;;;;9.07;2.38;;;5.50;99.90;;;;;;5054724;28;20313;-68
2022/02/05 01:28:39;;;;;;;1.95;1.63;;;5.50;99.90;;;;;;5055625;28;20187;-69
2022/02/05 01:31:06;;;;;;;5.10;1.77;;;5.40;99.90;;;;;;5055060;28;20208;-68
2022/02/05 01:33:59;;;;;;;3.13;2.20;;;5.40;99.90;;;;;;5055315;28;20215;-68
2022/02/05 01:39:27;;;;;;;1.92;1.70;;;5.40;99.90;;;;;;5054875;28;20207;-69
2022/02/05 01:53:28;;;;;;;1.67;1.58;;;5.20;99.90;;;;;;5046258;28;20203;-67
2022/02/05 01:56:18;;;;;;;2.10;1.33;;;5.20;99.90;;;;;;5054257;28;20231;-68
2022/02/05 01:58:58;;;;;;;5.85;2.20;;;5.10;99.90;;;;;;5054702;28;20207;-68
2022/02/05 02:12:23;;;;;;;1.67;1.58;;;5.00;99.90;;;;;;5051973;28;20191;-67
2022/02/05 02:14:57;;;;;;;1.48;1.38;;;4.90;99.90;;;;;;5054027;28;20318;-66
2022/02/05 02:20:46;;;;;;;2.80;1.50;;;4.90;99.90;;;;;;5053514;28;20192;-67
2022/02/05 02:23:28;;;;;;;2.58;1.95;;;4.90;99.90;;;;;;5054111;28;20238;-67
2022/02/05 02:26:02;;;;;;;3.53;1.90;;;4.80;99.90;;;;;;5053747;28;20223;-67
2022/02/05 02:28:43;;;;;;;1.40;1.30;;;4.70;99.90;;;;;;5053393;28;20211;-67
2022/02/05 02:31:16;;;;;;;2.45;1.60;;;4.70;99.90;;;;;;5053462;28;20580;-67
2022/02/05 02:33:47;;;;;;;3.10;1.65;;;4.70;99.90;;;;;;5053627;28;20215;-67
2022/02/05 02:36:23;;;;;;;2.70;1.42;;;4.70;99.90;;;;;;5053345;28;20262;-67
2022/02/05 02:38:56;;;;;;;3.92;1.60;;;4.70;99.90;;;;;;5053303;28;20249;-67
2022/02/05 02:41:26;;;;;;;5.40;1.50;;;4.70;99.90;;;;;;5054375;28;20192;-67
2022/02/05 02:43:53;;;;;;;5.85;2.05;;;4.70;99.90;;;;;;5055031;28;20249;-67
2022/02/05 02:46:21;;;;;;;2.45;1.90;;;4.60;99.90;;;;;;5054317;28;20204;-67
2022/02/05 02:48:49;;;;;;;3.05;1.80;;;4.60;99.90;;;;;;5054239;28;20306;-67
2022/02/05 02:56:54;;;;;;;2.67;1.58;;;4.60;99.90;;;;;;5054673;28;20207;-67
2022/02/05 02:59:25;;;;;;;2.10;1.90;;;4.60;99.90;;;;;;5054334;28;20209;-67
2022/02/05 03:01:59;;;;;;;2.80;2.50;;;4.60;99.90;;;;;;5054376;28;20215;-66
2022/02/05 03:04:25;;;;;;;5.03;2.00;;;4.50;99.90;;;;;;5054340;28;20223;-66
2022/02/05 03:06:53;;;;;;;3.88;2.55;;;4.60;99.90;;;;;;5054417;28;20207;-67
2022/02/05 03:09:23;;;;;;;2.47;2.25;;;4.50;99.90;;;;;;5054076;28;20257;-67
2022/02/05 03:11:49;;;;;;;3.83;2.60;;;4.60;99.90;;;;;;5053833;28;20203;-67
2022/02/05 03:14:16;;;;;;;3.25;2.00;;;4.60;99.90;;;;;;5053341;28;20235;-66
2022/02/05 03:16:48;;;;;;;3.50;2.38;;;4.60;99.90;;;;;;5054275;28;20210;-67
2022/02/05 03:19:16;;;;;;;2.58;2.25;;;4.60;99.90;;;;;;5054146;28;20208;-67
2022/02/05 03:21:44;;;;;;;2.97;2.40;;;4.70;99.90;;;;;;5053987;28;20673;-67
2022/02/05 03:24:11;;;;;;;3.95;2.40;;;4.70;99.90;;;;;;5053811;28;20253;-67
2022/02/05 03:26:41;;;;;;;2.58;2.20;;;4.70;99.90;;;;;;5053681;28;20269;-66
2022/02/05 03:29:11;;;;;;;4.13;2.47;;;4.70;99.90;;;;;;5053811;28;20249;-67
2022/02/05 03:31:38;;;;;;;3.13;2.40;;;4.60;99.90;;;;;;5053460;28;20207;-67
2022/02/05 03:34:06;;;;;;;5.05;2.50;;;4.60;99.90;;;;;;5053376;28;20219;-67
2022/02/05 03:36:36;;;;;;;2.85;2.55;;;4.60;99.90;;;;;;5053788;28;20208;-67
2022/02/05 03:39:04;;;;;;;4.18;2.75;;;4.60;99.90;;;;;;5053847;28;20192;-67
2022/02/05 03:41:31;;;;;;;4.00;2.70;;;4.60;99.90;;;;;;5053532;28;20565;-67
2022/02/05 03:43:59;;;;;;;3.63;2.60;;;4.60;99.90;;;;;;5053506;28;20203;-67
2022/02/05 03:46:26;;;;;;;5.80;2.90;;;4.60;99.90;;;;;;5053797;28;20210;-67
2022/02/05 03:48:53;;;;;;;4.10;3.05;;;4.60;99.90;;;;;;5053580;28;20301;-67
2022/02/05 03:51:20;;;;;;;6.07;3.30;;;4.60;99.90;;;;;;5053398;28;20290;-67
2022/02/05 03:53:47;;;;;;;7.20;3.20;;;4.60;99.90;;;;;;5053393;28;20238;-67
2022/02/05 03:56:14;;;;;;;4.00;3.30;;;4.60;99.90;;;;;;5053173;28;20262;-67
2022/02/05 03:58:41;;;;;;;3.80;2.75;;;4.50;99.90;;;;;;5053522;28;20550;-66
2022/02/05 04:01:09;;;;;;;5.15;2.83;;;4.50;99.90;;;;;;5053364;28;20203;-67
2022/02/05 04:03:36;;;;;;;3.08;2.80;;;4.50;99.90;;;;;;5053488;28;20203;-67
2022/02/05 04:06:02;;;;;;;4.30;3.03;;;4.50;99.90;;;;;;5053421;28;20310;-67
2022/02/05 04:08:30;;;;;;;4.82;3.00;;;4.50;99.90;;;;;;5053439;28;20238;-66
2022/02/05 04:11:04;;;;;;;5.10;2.80;;;4.40;99.90;;;;;;5053049;28;20261;-67
2022/02/05 04:16:23;;;;;;;4.50;3.15;;;4.30;99.90;;;;;;5053142;28;20683;-67
2022/02/05 04:18:51;;;;;;;6.47;3.60;;;4.40;99.90;;;;;;5053390;28;20581;-67
2022/02/05 04:21:19;;;;;;;4.20;2.90;;;4.40;99.90;;;;;;5053094;28;20629;-67
2022/02/05 04:23:47;;;;;;;4.35;2.70;;;4.40;99.90;;;;;;5053486;28;20565;-66
2022/02/05 04:26:14;;;;;;;4.20;3.05;;;4.40;99.90;;;;;;5056372;28;20255;-67
2022/02/05 04:28:41;;;;;;;4.47;2.95;;;4.40;99.90;;;;;;5057240;28;20213;-67
2022/02/05 04:31:08;;;;;;;3.72;3.22;;;4.40;99.90;;;;;;5056981;28;20204;-67
2022/02/05 04:33:36;;;;;;;3.05;2.70;;;4.40;99.90;;;;;;5057155;28;20658;-66
2022/02/05 04:36:04;;;;;;;3.03;2.83;;;4.40;99.90;;;;;;5056853;28;20231;-66
2022/02/05 04:38:32;;;;;;;6.47;3.58;;;4.40;99.90;;;;;;5056876;28;20697;-67
2022/02/05 04:41:04;;;;;;;4.07;2.55;;;4.40;99.90;;;;;;5056902;28;20234;-67
2022/02/05 04:49:33;;;;;;;4.40;3.17;;;4.60;99.90;;;;;;5056896;28;20250;-67
2022/02/05 04:54:58;;;;;;;3.75;2.85;;;4.60;99.90;;;;;;5056610;28;20230;-67
2022/02/05 04:57:42;;;;;;;2.95;2.33;;;4.60;99.90;;;;;;5056938;28;20241;-66
2022/02/05 05:00:28;;;;;;;4.88;3.00;;;4.70;99.90;;;;;;5056671;28;20199;-67
2022/02/05 05:03:25;;;;;;;5.15;2.78;;;4.70;99.90;;;;;;5056576;28;20560;-67
2022/02/05 05:06:11;;;;;;;3.78;2.60;;;4.70;99.90;;;;;;5056311;28;20716;-67
2022/02/05 05:08:46;;;;;;;5.40;3.03;;;4.80;99.90;;;;;;5056811;28;20239;-67
2022/02/05 05:11:36;;;;;;;4.18;2.28;;;4.80;99.90;;;;;;5056163;28;20207;-66
2022/02/05 05:19:36;;;;;;;5.18;2.38;;;4.90;99.90;;;;;;5056321;28;20198;-67
2022/02/05 05:22:05;;;;;;;3.40;2.00;;;5.00;99.90;;;;;;5056203;28;20199;-66
2022/02/05 05:24:32;;;;;;;3.10;2.45;;;5.00;99.90;;;;;;5055857;28;20229;-67
2022/02/05 05:26:59;;;;;;;2.60;2.20;;;5.00;99.90;;;;;;5055948;28;20665;-67
2022/02/05 05:29:26;;;;;;;3.30;2.40;;;5.00;99.90;;;;;;5056241;28;20210;-67
2022/02/05 05:31:53;;;;;;;4.45;2.47;;;5.00;99.90;;;;;;5056050;28;20205;-67
2022/02/05 05:34:20;;;;;;;4.75;3.05;;;5.00;99.90;;;;;;5055643;28;20310;-67
2022/02/05 05:36:47;;;;;;;2.72;2.00;;;4.90;99.90;;;;;;5055508;28;20207;-67
2022/02/05 05:39:16;;;;;;;3.65;2.38;;;5.00;99.90;;;;;;5056015;28;20206;-67
2022/02/05 05:41:43;;;;;;;4.10;2.80;;;5.10;99.90;;;;;;5055770;28;20204;-67
2022/02/05 05:47:35;;;;;;;3.30;2.85;;;5.20;99.90;;;;;;5091745;28;20510;-67
2022/02/05 05:50:10;;;;;;;4.05;3.00;;;5.30;99.90;;;;;;5091263;28;20202;-66
2022/02/05 05:52:38;;;;;;;8.80;2.90;;;5.30;99.90;;;;;;5091145;28;20186;-67
2022/02/05 05:55:05;;;;;;;8.13;5.05;;;5.30;99.90;;;;;;5091653;28;20376;-66
2022/02/05 05:57:32;;;;;;;4.50;2.60;;;5.30;99.90;;;;;;5091022;28;20678;-67
2022/02/05 05:59:59;;;;;;;4.30;2.55;;;5.30;99.90;;;;;;5091036;28;20201;-67
2022/02/05 06:02:27;;;;;;;4.47;2.80;;;5.30;99.90;;;;;;5091108;28;20202;-67
2022/02/05 06:04:54;;;;;;;4.40;3.03;;;5.30;99.90;;;;;;5090945;28;20248;-67
2022/02/05 06:07:21;;;;;;;4.80;2.78;;;5.30;99.90;;;;;;5091056;28;20221;-67
2022/02/05 06:09:47;;;;;;;2.85;2.30;;;5.30;99.90;;;;;;5090836;28;20229;-67
2022/02/05 06:12:14;;;;;;;4.30;2.80;;;5.30;99.90;;;;;;5090885;28;20293;-67
2022/02/05 06:14:42;;;;;;;3.40;3.10;;;5.30;99.90;;;;;;5090966;28;20226;-67
2022/02/05 06:17:09;;;;;;;3.10;2.38;;;5.40;99.90;;;;;;5090860;28;20198;-66
2022/02/05 06:19:40;;;;;;;5.03;2.38;;;5.30;99.90;;;;;;5090701;28;20229;-66
2022/02/05 06:22:07;;;;;;;3.58;2.53;;;5.30;99.90;;;;;;5091016;28;20673;-67
2022/02/05 06:24:34;;;;;;;4.75;2.55;;;5.30;99.90;;;;;;5090686;28;20228;-67
2022/02/05 06:27:00;;;;;;;3.85;2.67;;;5.30;99.90;;;;;;5090412;28;20226;-67
2022/02/05 06:29:27;;;;;;;2.92;2.40;;;5.30;99.90;;;;;;5090615;28;20571;-67
2022/02/05 06:31:54;;;;;;;11.63;6.72;;;5.30;99.90;;;;;;5090295;28;20292;-67
2022/02/05 06:34:21;;;;;;;3.50;2.65;;;5.40;99.90;;;;;;5090344;28;20218;-66
2022/02/05 06:36:49;;;;;;;4.78;2.65;;;5.40;99.90;;;;;;5090552;28;20206;-67
2022/02/05 06:39:16;;;;;;;3.97;2.70;;;5.40;99.90;;;;;;5090367;28;20207;-67
2022/02/05 06:41:43;;;;;;;2.47;2.15;;;5.40;99.90;;;;;;5090286;28;20202;-67
2022/02/05 06:44:11;;;;;;;4.53;2.70;;;5.40;99.90;;;;;;5090265;28;20198;-66
2022/02/05 06:46:38;;;;;;;4.25;2.50;;;5.30;99.90;;;;;;5089767;28;20228;-67
2022/02/05 06:49:04;;;;;;;4.90;2.97;;;5.30;99.90;;;;;;5090264;28;20248;-66
2022/02/05 06:51:31;;;;;;;3.50;2.70;;;5.30;99.90;;;;;;5090138;28;20234;-67
2022/02/05 06:53:59;;;;;;;5.03;2.97;;;5.40;99.90;;;;;;5090077;28;20202;-67
2022/02/05 06:56:26;;;;;;;3.53;3.15;;;5.40;99.90;;;;;;5088580;28;20202;-66
2022/02/05 06:58:53;;;;;;;9.70;6.13;;;5.40;99.90;;;;;;5076781;28;20679;-67
2022/02/05 07:01:20;;;;;;;4.28;2.90;;;5.50;99.90;;;;;;5076103;28;20213;-67
2022/02/05 07:03:47;;;;;;;4.45;3.20;;;5.50;99.90;;;;;;5076367;28;20207;-67
2022/02/05 07:06:14;;;;;;;3.78;2.50;;;5.50;99.90;;;;;;5076539;28;20265;-67
2022/02/05 07:08:42;;;;;;;2.72;2.53;;;5.50;99.90;;;;;;5076494;28;20392;-67
2022/02/05 07:11:10;;;;;;;2.83;2.50;;;5.60;99.90;;;;;;5075900;28;20210;-67
2022/02/05 07:13:37;;;;;;;4.00;2.60;;;5.60;99.90;;;;;;5076406;28;20546;-67
2022/02/05 07:16:10;;;;;;;3.17;2.20;;;5.60;99.90;;;;;;5076149;28;20634;-67
2022/02/05 07:18:46;;;;;;;3.45;2.75;;;5.60;99.90;;;;;;5076278;28;20210;-67
2022/02/05 07:21:16;;;;;;;4.72;2.90;;;5.70;99.90;;;;;;5076193;28;20187;-67
2022/02/05 07:29:15;;;;;;;3.40;3.10;;;5.50;99.90;;;;;;5076329;28;20292;-67
2022/02/05 07:31:47;;;;;;;3.60;3.10;;;5.40;99.90;;;;;;5075874;28;20205;-67
2022/02/05 07:34:14;;;;;;;4.05;3.08;;;5.50;99.90;;;;;;5075580;28;20213;-67
2022/02/05 07:36:41;;;;;;;4.03;2.90;;;5.50;99.90;;;;;;5075470;28;20202;-67
2022/02/05 07:39:09;;;;;;;4.47;3.10;;;5.60;99.90;;;;;;5075640;28;20293;-67
2022/02/05 07:41:40;;;;;;;3.45;2.80;;;5.60;99.90;;;;;;5075414;28;20286;-67
2022/02/05 07:44:11;;;;;;;3.25;2.60;;;5.70;99.90;;;;;;5075808;28;20607;-67
2022/02/05 07:46:38;;;;;;;3.65;2.90;;;5.70;99.90;;;;;;5075270;28;20226;-67
2022/02/05 07:49:06;;;;;;;4.18;2.65;;;5.70;99.90;;;;;;5075486;28;20234;-67
2022/02/05 07:51:33;;;;;;;3.90;2.65;;;5.70;99.90;;;;;;5075193;28;20239;-67
2022/02/05 07:53:59;;;;;;;3.92;2.85;;;5.70;99.90;;;;;;5075374;28;20205;-67
2022/02/05 07:56:27;;;;;;;3.08;2.78;;;5.70;99.90;;;;;;5075294;28;20294;-67
2022/02/05 07:58:55;;;;;;;7.05;2.65;;;5.70;99.90;;;;;;5075673;28;20211;-67
2022/02/05 08:01:22;;;;;;;5.00;2.80;;;5.70;99.90;;;;;;5075722;28;20203;-67
2022/02/05 08:03:49;;;;;;;3.30;2.42;;;5.70;99.90;;;;;;5076007;28;20293;-67
2022/02/05 08:06:17;;;;;;;4.47;2.60;;;5.60;99.90;;;;;;5075403;28;20254;-67
2022/02/05 08:08:48;;;;;;;3.42;2.58;;;5.50;99.90;;;;;;5074442;28;20239;-67
2022/02/05 08:11:19;;;;;;;2.80;2.40;;;5.50;99.90;;;;;;5075352;28;20202;-67
2022/02/05 08:13:49;;;;;;;7.20;2.30;;;5.40;99.90;;;;;;5075229;28;20264;-67
2022/02/05 08:16:32;;;;;;;2.70;2.30;;;5.40;99.90;;;;;;5074706;28;20218;-67
2022/02/05 08:18:59;;;;;;;2.90;2.10;;;5.40;99.90;;;;;;5074695;28;20214;-67
2022/02/05 08:21:25;;;;;;;3.83;2.25;;;5.40;99.90;;;;;;5074753;28;20214;-67
2022/02/05 08:23:52;;;;;;;3.65;2.75;;;5.40;99.90;;;;;;5074834;28;20198;-67
2022/02/05 08:26:23;;;;;;;3.15;2.63;;;5.40;99.90;;;;;;5074636;28;20233;-67
2022/02/05 08:28:50;;;;;;;3.55;2.63;;;5.50;99.90;;;;;;5074773;28;20260;-67
2022/02/05 08:31:18;;;;;;;4.45;2.60;;;5.50;99.90;;;;;;5074294;28;20211;-67
2022/02/05 08:33:45;;;;;;;3.70;2.70;;;5.50;99.90;;;;;;5074669;28;20214;-67
2022/02/05 08:36:12;;;;;;;4.85;2.60;;;5.50;99.90;;;;;;5074561;28;20231;-67
2022/02/05 08:38:39;;;;;;;4.60;2.50;;;5.50;99.90;;;;;;5074534;28;20293;-67
2022/02/05 08:41:06;;;;;;;2.63;2.40;;;5.50;99.90;;;;;;5074190;28;20202;-67
2022/02/05 08:43:33;;;;;;;4.47;2.50;;;5.40;99.90;;;;;;5074425;28;20202;-67
2022/02/05 08:46:00;;;;;;;5.75;2.60;;;5.40;99.90;;;;;;5073997;28;20322;-67
2022/02/05 08:48:29;;;;;;;5.43;2.70;;;5.30;99.90;;;;;;5074317;28;20203;-67
2022/02/05 08:50:56;;;;;;;2.85;2.30;;;5.30;99.90;;;;;;5073971;28;20656;-67
2022/02/05 08:53:22;;;;;;;3.05;2.03;;;5.30;99.90;;;;;;5073968;28;20211;-67
2022/02/05 08:55:51;;;;;;;2.50;2.30;;;5.30;99.90;;;;;;5074011;28;20223;-67
2022/02/05 08:58:18;;;;;;;2.45;2.10;;;5.30;99.90;;;;;;5073995;28;20203;-67
2022/02/05 09:00:47;;;;;;;5.97;2.35;;;5.40;99.90;;;;;;5073788;28;20206;-67
2022/02/05 09:03:25;;;;;;;4.35;2.35;;;5.50;99.90;;;;;;5074764;28;20298;-67
2022/02/05 09:05:53;;;;;;;5.93;2.50;;;5.50;99.90;;;;;;5073756;28;20249;-67
2022/02/05 09:08:25;;;;;;;2.60;2.33;;;5.60;99.90;;;;;;5074083;28;20202;-67
2022/02/05 09:11:00;;;;;;;2.85;2.30;;;5.60;99.90;;;;;;5073714;28;20301;-67
2022/02/05 09:13:59;;;;;;;5.40;2.30;;;5.70;99.90;;;;;;5073970;28;20207;-67
2022/02/05 09:16:26;;;;;;;4.65;2.50;;;5.70;99.90;;;;;;5073980;28;20187;-67
2022/02/05 09:18:53;;;;;;;5.40;2.40;;;5.70;99.90;;;;;;5073863;28;20203;-67
2022/02/05 09:21:21;;;;;;;3.88;1.98;;;5.70;99.90;;;;;;5073269;28;20206;-67
2022/02/05 09:23:53;;;;;;;3.58;2.38;;;5.80;99.90;;;;;;5073648;28;20199;-67
2022/02/05 09:26:20;;;;;;;3.50;2.42;;;5.80;99.90;;;;;;5074016;28;20651;-67
2022/02/05 09:28:47;;;;;;;2.80;2.28;;;5.80;99.90;;;;;;5073973;28;20202;-67
2022/02/05 09:31:27;;;;;;;6.13;2.75;;;5.80;99.90;;;;;;5073628;28;20198;-67
2022/02/05 09:33:54;;;;;;;2.38;1.85;;;5.90;99.90;;;;;;5073795;28;20282;-67
2022/02/05 09:36:23;;;;;;;4.55;2.42;;;5.90;99.90;;;;;;5073646;28;20676;-67
2022/02/05 09:38:51;;;;;;;2.88;1.88;;;5.90;99.90;;;;;;5073910;28;20202;-67
2022/02/05 09:41:18;;;;;;;4.90;2.20;;;5.90;99.90;;;;;;5073314;28;20202;-67
2022/02/05 09:43:48;;;;;;;4.65;2.20;;;6.00;99.90;;;;;;5073695;28;20297;-67
2022/02/05 09:46:15;;;;;;;5.75;2.60;;;6.10;99.90;;;;;;5073119;28;20236;-67
2022/02/05 09:48:45;;;;;;;8.77;4.82;;;6.10;99.90;;;;;;5073586;28;20595;-67
2022/02/05 09:51:17;;;;;;;8.93;5.80;;;6.20;99.90;;;;;;5073223;28;20293;-67
2022/02/05 09:53:50;;;;;;;4.57;2.50;;;6.30;99.90;;;;;;5073585;28;20581;-67
2022/02/05 09:56:18;;;;;;;3.83;2.20;;;6.30;99.90;;;;;;5073611;28;20214;-66
2022/02/05 09:58:45;;;;;;;3.40;2.40;;;6.40;99.90;;;;;;5073530;28;20203;-67
2022/02/05 10:01:16;;;;;;;2.53;1.90;;;6.50;99.90;;;;;;5073407;28;20555;-67
2022/02/05 10:03:45;;;;;;;4.38;2.30;;;6.70;99.90;;;;;;5073484;28;20187;-67
2022/02/05 10:06:17;;;;;;;3.05;2.20;;;6.70;99.90;;;;;;5072934;28;20227;-67
2022/02/05 10:08:46;;;;;;;4.93;2.85;;;6.80;99.90;;;;;;5073494;28;20282;-67
2022/02/05 10:11:15;;;;;;;4.03;2.00;;;6.90;99.90;;;;;;5072875;28;20677;-70
2022/02/05 10:13:42;;;;;;;3.15;1.90;;;7.00;99.90;;;;;;5059431;28;20235;-69
2022/02/05 10:16:10;;;;;;;2.40;1.92;;;7.10;99.90;;;;;;5071067;28;20234;-68
2022/02/05 10:18:39;;;;;;;3.15;2.00;;;7.20;99.90;;;;;;5071989;28;20568;-68
2022/02/05 10:21:21;;;;;;;4.03;2.50;;;7.20;99.90;;;;;;5071876;28;20203;-67
2022/02/05 10:23:59;;;;;;;2.95;2.08;;;7.20;99.90;;;;;;5071669;28;20213;-68
2022/02/05 10:26:36;;;;;;;2.55;1.90;;;7.30;99.90;;;;;;5071755;28;20237;-67
2022/02/05 10:29:06;;;;;;;6.13;1.95;;;7.30;99.90;;;;;;5071989;28;20643;-68
2022/02/05 10:31:56;;;;;;;2.95;2.45;;;7.20;99.90;;;;;;5071781;28;20211;-67
2022/02/05 10:34:24;;;;;;;3.95;1.85;;;7.20;99.90;;;;;;5075616;28;20314;-67
2022/02/05 10:37:08;;;;;;;2.85;2.00;;;7.30;99.90;;;;;;5075202;28;20209;-67
2022/02/05 10:39:52;;;;;;;2.65;2.05;;;7.40;99.90;;;;;;5075539;28;20209;-67
2022/02/05 10:45:07;;;;;;;1.90;1.67;;;7.50;99.90;;;;;;5075218;28;20230;-67
2022/02/05 10:47:51;;;;;;;1.85;1.70;;;7.80;99.90;;;;;;5075495;28;20213;-67
2022/02/05 10:50:20;;;;;;;3.60;1.75;;;7.70;98.80;;;;;;5075550;28;20210;-67
2022/02/05 10:52:53;;;;;;;3.83;1.88;;;7.80;99.20;;;;;;5075244;28;20297;-67
2022/02/05 10:55:27;;;;;;;3.88;1.65;;;8.00;99.50;;;;;;5074944;28;20768;-67
2022/02/05 10:58:14;;;;;;;3.10;1.45;;;8.10;98.00;;;;;;5075243;28;20210;-67
2022/02/05 11:06:10;;;;;;;2.92;1.80;;;8.40;96.40;;;;;;5075201;28;20263;-67
2022/02/05 11:08:37;;;;;;;5.20;1.88;;;8.50;96.00;;;;;;5074855;28;20222;-67
2022/02/05 11:14:01;;;;;;;4.55;1.75;;;8.60;96.60;;;;;;5075317;28;20205;-67
2022/02/05 11:19:09;;;;;;;2.08;1.30;;;8.80;94.80;;;;;;5072379;28;20198;-67
2022/02/05 11:21:37;;;;;;;1.63;1.40;;;8.70;92.80;;;;;;5074727;28;20237;-67
2022/02/05 11:24:07;;;;;;;3.08;1.60;;;8.60;93.20;;;;;;5075063;28;20207;-67
2022/02/05 11:26:35;;;;;;;2.10;1.50;;;8.90;93.60;;;;;;5074956;28;20507;-67
2022/02/05 11:29:06;;;;;;;3.80;1.58;;;9.50;91.70;;;;;;5075300;28;20224;-67
2022/02/05 11:31:36;;;;;;;1.40;1.15;;;9.80;90.90;;;;;;5074599;28;20692;-68
2022/02/05 11:34:28;;;;;;;2.00;1.50;;;10.10;88.50;;;;;;5074587;28;20427;-67
2022/02/05 11:37:04;;;;;;;2.70;1.30;;;10.20;88.90;;;;;;5074767;28;20192;-67
2022/02/05 11:39:44;;;;;;;1.50;1.38;;;9.60;85.80;;;;;;5074820;28;20187;-68
2022/02/05 11:42:31;;;;;;;3.40;1.60;;;9.50;87.40;;;;;;5074755;28;20213;-68
2022/02/05 11:45:01;;;;;;;2.25;1.30;;;9.90;89.70;;;;;;5074285;28;20229;-67
2022/02/05 11:47:32;;;;;;;1.88;1.20;;;10.40;88.60;;;;;;5074199;28;20272;-67
2022/02/05 11:50:23;;;;;;;1.20;0.98;;;10.60;81.30;;;;;;5074701;28;20537;-67
2022/02/05 11:53:09;;;;;;;1.25;1.10;;;10.70;79.30;;;;;;5074545;28;20187;-67
2022/02/05 11:55:42;;;;;;;1.85;1.13;;;10.70;79.80;;;;;;5071786;28;20635;-67
2022/02/05 11:58:10;;;;;;;1.98;1.10;;;10.70;78.00;;;;;;5074562;28;20538;-67
2022/02/05 12:00:39;;;;;;;6.80;1.45;;;10.30;77.50;;;;;;5074316;28;20273;-67
2022/02/05 12:03:27;;;;;;;1.52;1.42;;;9.90;80.60;;;;;;5074575;28;20626;-67
2022/02/05 12:06:00;;;;;;;4.30;1.38;;;9.80;82.30;;;;;;5073622;28;20269;-67
2022/02/05 12:08:28;;;;;;;1.40;1.30;;;9.90;83.00;;;;;;5074085;28;20349;-67
2022/02/05 12:10:58;;;;;;;2.15;1.20;;;9.90;84.60;;;;;;5074262;28;20410;-68
2022/02/05 12:13:28;;;;;;;2.95;1.60;;;10.10;82.40;;;;;;5073688;28;20302;-68
2022/02/05 12:16:19;;;;;;;1.50;1.10;;;10.40;82.30;;;;;;5073632;28;20237;-67
2022/02/05 12:18:58;;;;;;;2.65;1.10;;;10.50;79.60;;;;;;5074170;28;20671;-68
2022/02/05 12:21:29;;;;;;;2.50;1.10;;;10.30;79.10;;;;;;5073537;28;20289;-67
2022/02/05 12:24:32;;;;;;;3.17;1.20;;;10.30;79.20;;;;;;5074207;28;20207;-68
2022/02/05 12:26:59;;;;;;;2.67;1.52;;;10.60;77.80;;;;;;5072263;28;20306;-68
2022/02/05 12:29:29;;;;;;;1.85;1.00;;;10.80;76.70;;;;;;5073455;28;20209;-71
2022/02/05 12:31:58;;;;;;;1.02;0.88;;;10.90;75.80;;;;;;5072960;28;20910;-70
2022/02/05 12:34:38;;;;;;;3.13;1.35;;;11.10;72.80;;;;;;5073255;28;20724;-70
2022/02/05 12:37:07;;;;;;;2.80;1.33;;;11.00;72.50;;;;;;5073582;28;20237;-71
2022/02/05 12:39:36;;;;;;;2.58;1.38;;;10.80;73.20;;;;;;5073703;28;20293;-69
2022/02/05 12:42:11;;;;;;;2.10;1.15;;;10.60;72.50;;;;;;5073211;28;20661;-70
2022/02/05 12:44:39;;;;;;;4.10;1.65;;;10.90;72.70;;;;;;5073277;28;20226;-69
2022/02/05 12:47:13;;;;;;;2.75;2.50;;;11.20;72.30;;;;;;5073946;28;20223;-70
2022/02/05 12:49:48;;;;;;;8.20;2.75;;;11.70;71.30;;;;;;5073262;28;20203;-69
2022/02/05 12:52:22;;;;;;;2.55;1.40;;;12.40;68.70;;;;;;5073342;28;20202;-69
2022/02/05 12:54:55;;;;;;;0.80;0.60;;;12.70;66.90;;;;;;5072624;28;20719;-69
2022/02/05 12:57:22;;;;;;;2.20;1.00;;;12.80;64.60;;;;;;5072814;28;20206;-69
2022/02/05 12:59:49;;;;;;;1.02;1.00;;;12.40;64.60;;;;;;5072649;28;20289;-69
2022/02/05 13:02:19;;;;;;;3.08;1.30;;;12.20;64.80;;;;;;5073162;28;20202;-73
2022/02/05 13:04:48;;;;;;;2.45;1.15;;;12.10;64.70;;;;;;5072616;28;20230;-71
2022/02/05 13:07:18;;;;;;;1.30;1.00;;;11.80;65.00;;;;;;5072557;28;20600;-76
2022/02/05 13:09:48;;;;;;;1.92;1.55;;;11.80;66.30;;;;;;5072303;28;20591;-72
2022/02/05 13:12:18;;;;;;;1.52;1.30;;;12.10;65.40;;;;;;5072811;28;20248;-72
2022/02/05 13:14:50;;;;;;;2.22;1.48;;;12.00;65.60;;;;;;5072203;28;20288;-76
2022/02/05 13:17:32;;;;;;;1.17;0.85;;;11.60;65.90;;;;;;5072208;28;20760;-71
2022/02/05 13:20:20;;;;;;;1.05;1.00;;;11.30;67.20;;;;;;5072356;28;20298;-69
2022/02/05 13:25:43;;;;;;;2.70;1.30;;;11.00;67.70;;;;;;5072177;28;20217;-70
2022/02/05 13:28:25;;;;;;;0.80;0.70;;;10.70;67.60;;;;;;5072258;28;20684;-70
2022/02/05 13:33:47;;;;;;;2.47;1.50;;;10.10;69.10;;;;;;5040935;28;20226;-70
2022/02/05 13:36:17;;;;;;;2.33;1.20;;;9.90;71.20;;;;;;5072662;28;20226;-71
2022/02/05 13:39:06;;;;;;;1.13;1.02;;;9.70;73.00;;;;;;5071750;28;20199;-70
2022/02/05 13:41:43;;;;;;;1.02;0.90;;;9.60;72.80;;;;;;5072002;28;20297;-70
2022/02/05 13:44:15;;;;;;;1.85;1.20;;;9.50;73.70;;;;;;5072288;28;20199;-70
2022/02/05 13:46:42;;;;;;;2.60;1.27;;;9.60;74.00;;;;;;5072357;28;20271;-70
2022/02/05 13:49:17;;;;;;;1.40;0.93;;;9.60;73.30;;;;;;5072128;28;20250;-70
2022/02/05 13:51:45;;;;;;;2.45;1.10;;;9.70;72.70;;;;;;5072102;28;20206;-71
2022/02/05 13:54:12;;;;;;;1.90;1.15;;;9.70;72.90;;;;;;5071983;28;20202;-72
2022/02/05 13:56:39;;;;;;;1.17;0.98;;;9.60;72.00;;;;;;5072601;28;20198;-71
2022/02/05 13:59:18;;;;;;;1.10;0.95;;;9.60;71.40;;;;;;5072100;28;20199;-71
2022/02/05 14:01:45;;;;;;;1.63;1.20;;;9.50;72.40;;;;;;5071915;28;20298;-71
2022/02/05 14:04:14;;;;;;;3.15;1.10;;;9.50;74.00;;;;;;5072141;28;20834;-71
2022/02/05 14:06:53;;;;;;;3.10;1.00;;;9.50;73.20;;;;;;5072250;28;20691;-70
2022/02/05 14:09:29;;;;;;;3.88;1.45;;;9.60;73.80;;;;;;5076266;28;20587;-71
2022/02/05 14:11:59;;;;;;;3.35;1.10;;;9.40;75.30;;;;;;5076213;28;20305;-72
2022/02/05 14:14:28;;;;;;;1.92;0.90;;;9.40;75.60;;;;;;5076066;28;20233;-72
2022/02/05 14:16:55;;;;;;;1.00;0.88;;;9.40;74.70;;;;;;5076090;28;20202;-73
2022/02/05 14:19:23;;;;;;;1.75;1.45;;;9.40;75.50;;;;;;5077275;28;20210;-76
2022/02/05 14:21:53;;;;;;;3.80;1.65;;;9.40;76.90;;;;;;5076805;28;20210;-75
2022/02/05 14:24:23;;;;;;;1.30;1.17;;;9.40;78.30;;;;;;5076990;28;20223;-75
2022/02/05 14:26:56;;;;;;;3.63;1.30;;;9.30;78.40;;;;;;5076835;28;20202;-75
2022/02/05 14:29:23;;;;;;;4.05;1.40;;;9.40;78.70;;;;;;5077024;28;20245;-75
2022/02/05 14:31:54;;;;;;;1.77;1.40;;;9.30;78.00;;;;;;5076727;28;20299;-75
2022/02/05 14:34:27;;;;;;;1.20;1.10;;;9.30;79.00;;;;;;5076888;28;20229;-75
2022/02/05 14:42:31;;;;;;;4.00;1.40;;;9.40;80.40;;;;;;5076807;28;20324;-75
2022/02/05 14:44:58;;;;;;;2.90;1.20;;;9.50;79.50;;;;;;5076266;28;20254;-75
2022/02/05 14:47:25;;;;;;;1.00;0.82;;;9.50;78.50;;;;;;5076568;28;20215;-75
2022/02/05 14:49:52;;;;;;;2.25;0.98;;;9.60;79.20;;;;;;5076456;28;20245;-75
2022/02/05 14:52:21;;;;;;;1.63;1.25;;;9.60;78.90;;;;;;5076410;28;20245;-75
2022/02/05 14:54:48;;;;;;;1.27;1.17;;;9.70;77.70;;;;;;5076415;28;20222;-75
2022/02/05 14:57:15;;;;;;;1.50;1.17;;;9.70;77.80;;;;;;5076396;28;20297;-75
2022/02/05 14:59:42;;;;;;;1.23;1.10;;;9.70;78.00;;;;;;5076184;28;20203;-75
2022/02/05 15:02:10;;;;;;;2.05;1.00;;;9.60;75.10;;;;;;5076316;28;20199;-75
2022/02/05 15:04:38;;;;;;;1.67;1.00;;;9.50;75.20;;;;;;5076130;28;20229;-75